Time;durP1;ratioP1;P1;durP2;ratioP2;P2;SDS_P1;SDS_P2;PMS_P1;PMS_P2;Temp;Humidity;BMP_temperature;BMP_pressure;BME280_temperature;BME280_humidity;BME280_pressure;Samples;Min_cycle;Max_cycle;Signal;HPM_P1;HPM_P2
2024/03/02 00:00:39;;;;;;;4.30;3.90;;;;;;;18.73;49.76;96428.44;5011517;28;20222;-25
2024/03/02 00:03:07;;;;;;;4.57;4.17;;;;;;;18.74;50.20;96419.97;5011304;28;20321;-26
2024/03/02 00:05:33;;;;;;;4.53;4.00;;;;;;;18.73;49.82;96422.50;5011538;28;20202;-25
2024/03/02 00:08:00;;;;;;;4.40;4.00;;;;;;;18.69;50.26;96424.13;5011368;28;20205;-26
2024/03/02 00:10:39;;;;;;;4.50;4.10;;;;;;;18.68;50.21;96417.28;5011138;28;20223;-25
2024/03/02 00:13:07;;;;;;;4.53;3.83;;;;;;;18.67;50.23;96412.16;5012595;28;20233;-27
2024/03/02 00:15:47;;;;;;;4.20;3.90;;;;;;;18.66;50.22;96418.09;5012973;28;20222;-25
2024/03/02 00:18:18;;;;;;;4.70;3.93;;;;;;;18.59;50.22;96395.88;5024368;28;20654;-25
2024/03/02 00:20:44;;;;;;;4.17;3.77;;;;;;;18.65;50.23;96409.59;5014275;28;20229;-25
2024/03/02 00:23:14;;;;;;;4.50;4.10;;;;;;;18.67;50.19;96414.72;5014165;28;20194;-27
2024/03/02 00:25:44;;;;;;;4.63;4.10;;;;;;;18.67;50.39;96409.63;5014681;28;20292;-25
2024/03/02 00:28:14;;;;;;;4.63;4.03;;;;;;;18.67;50.31;96409.63;5013618;28;20194;-27
2024/03/02 00:30:43;;;;;;;4.13;3.73;;;;;;;18.67;50.36;96409.63;5013531;28;20269;-25
2024/03/02 00:33:10;;;;;;;4.40;4.00;;;;;;;18.67;50.31;96412.16;5014459;28;20206;-25
2024/03/02 00:35:37;;;;;;;4.20;3.80;;;;;;;18.67;50.09;96407.94;5013569;28;20218;-25
2024/03/02 00:38:06;;;;;;;3.93;3.63;;;;;;;18.69;50.22;96408.00;5012866;28;20289;-25
2024/03/02 00:40:33;;;;;;;4.37;3.97;;;;;;;18.69;50.34;96408.84;5012950;28;20245;-31
2024/03/02 00:42:59;;;;;;;4.00;3.70;;;;;;;18.64;49.94;96400.25;5012618;28;20289;-25
2024/03/02 00:45:26;;;;;;;4.03;3.63;;;;;;;18.68;50.07;96402.03;5013013;28;20241;-25
2024/03/02 00:47:52;;;;;;;4.13;3.70;;;;;;;18.70;50.28;96409.69;5013031;28;20209;-27
2024/03/02 00:50:19;;;;;;;4.83;4.10;;;;;;;18.68;50.39;96402.03;5013542;28;20635;-28
2024/03/02 00:52:56;;;;;;;3.90;3.60;;;;;;;18.71;49.94;96401.25;5011483;28;20618;-25
2024/03/02 00:55:22;;;;;;;4.43;4.03;;;;;;;18.64;50.07;96396.84;5014361;28;20635;-27
2024/03/02 00:57:49;;;;;;;3.87;3.57;;;;;;;18.70;49.98;96404.59;5014339;28;20218;-25
2024/03/02 01:00:17;;;;;;;4.00;3.60;;;;;;;18.71;49.93;96401.25;5013290;28;20834;-26
2024/03/02 01:02:46;;;;;;;4.20;3.80;;;;;;;18.72;50.16;96408.06;5013689;28;20205;-25
2024/03/02 01:05:13;;;;;;;4.30;3.90;;;;;;;18.72;50.16;96403.84;5013022;28;20202;-25
2024/03/02 01:07:39;;;;;;;4.70;3.93;;;;;;;18.72;50.42;96406.38;5014312;28;20725;-26
2024/03/02 01:10:06;;;;;;;3.93;3.63;;;;;;;18.72;50.16;96410.59;5013608;28;20300;-25
2024/03/02 01:12:33;;;;;;;5.17;4.03;;;;;;;18.73;50.09;96415.72;5012277;28;20602;-25
2024/03/02 01:14:59;;;;;;;3.60;3.30;;;;;;;18.71;49.76;96419.91;5013854;28;20222;-27
2024/03/02 01:17:26;;;;;;;3.93;3.53;;;;;;;18.69;50.09;96419.03;5013805;28;20249;-25
2024/03/02 01:19:52;;;;;;;4.43;4.03;;;;;;;18.68;50.38;96422.38;5013697;28;20277;-25
2024/03/02 01:22:24;;;;;;;3.90;3.50;;;;;;;18.67;50.38;96419.81;5013127;28;20669;-25
2024/03/02 01:24:51;;;;;;;4.30;3.67;;;;;;;18.67;50.36;96422.34;5012626;28;20285;-25
2024/03/02 01:27:18;;;;;;;4.17;3.77;;;;;;;18.66;50.54;96420.63;5013219;28;20207;-27
2024/03/02 01:29:45;;;;;;;3.70;3.40;;;;;;;18.66;50.47;96418.09;5013410;28;20223;-25
2024/03/02 01:32:12;;;;;;;4.03;3.63;;;;;;;18.65;50.86;96414.69;5013798;28;20641;-27
2024/03/02 01:34:38;;;;;;;4.10;3.70;;;;;;;18.64;50.38;96407.00;5013258;28;20680;-25
2024/03/02 01:37:05;;;;;;;4.10;3.80;;;;;;;18.65;50.58;96414.69;5010492;28;20226;-25
2024/03/02 01:39:31;;;;;;;4.10;3.70;;;;;;;18.64;50.33;96412.09;5013402;28;20700;-25
2024/03/02 01:41:58;;;;;;;3.83;3.53;;;;;;;18.65;50.46;96408.75;5012730;28;20199;-25
2024/03/02 01:44:24;;;;;;;4.00;3.70;;;;;;;18.64;50.25;96417.19;5013561;28;20294;-25
2024/03/02 01:46:51;;;;;;;4.00;3.60;;;;;;;18.65;50.08;96408.75;5013131;28;20661;-25
2024/03/02 01:49:18;;;;;;;3.70;3.40;;;;;;;18.64;50.66;96412.97;5013147;28;20787;-25
2024/03/02 01:51:45;;;;;;;4.37;3.97;;;;;;;18.64;50.37;96410.44;5012011;28;20202;-25
2024/03/02 01:54:12;;;;;;;4.17;3.77;;;;;;;18.63;50.39;96412.94;5012061;28;20202;-25
2024/03/02 01:56:39;;;;;;;4.23;3.83;;;;;;;18.64;50.69;96415.53;5012886;28;20237;-26
2024/03/02 01:59:06;;;;;;;3.97;3.63;;;;;;;18.66;50.59;96413.00;5010729;28;20313;-25
2024/03/02 02:01:32;;;;;;;4.37;3.80;;;;;;;18.66;50.68;96407.91;5012020;28;20294;-25
2024/03/02 02:03:59;;;;;;;4.17;3.83;;;;;;;18.68;50.31;96413.91;5012325;28;20198;-32
2024/03/02 02:06:26;;;;;;;3.40;3.10;;;;;;;18.69;50.54;96413.06;5009984;28;20225;-25
2024/03/02 02:08:53;;;;;;;3.73;3.43;;;;;;;18.68;50.51;96402.03;5012517;28;20260;-25
2024/03/02 02:11:19;;;;;;;4.00;3.60;;;;;;;18.71;50.52;96409.72;5027757;28;20256;-26
2024/03/02 02:13:46;;;;;;;4.33;3.80;;;;;;;18.66;50.30;96396.06;5012865;28;20672;-25
2024/03/02 02:16:15;;;;;;;3.67;3.37;;;;;;;18.73;50.21;96405.53;5012572;28;20234;-25
2024/03/02 02:18:42;;;;;;;3.77;3.37;;;;;;;18.74;50.29;96396.25;5012781;28;20221;-25
2024/03/02 02:21:09;;;;;;;3.87;3.50;;;;;;;18.75;49.81;96396.28;5013084;28;20223;-26
2024/03/02 02:23:35;;;;;;;3.80;3.50;;;;;;;18.74;50.21;96389.44;5011827;28;20203;-25
2024/03/02 02:26:02;;;;;;;3.93;3.63;;;;;;;18.77;50.22;96397.13;5012689;28;20286;-31
2024/03/02 02:28:29;;;;;;;3.80;3.50;;;;;;;18.79;49.85;96394.63;5012412;28;20636;-25
2024/03/02 02:31:00;;;;;;;3.80;3.50;;;;;;;18.81;50.45;96393.00;5012403;28;20242;-25
2024/03/02 02:33:27;;;;;;;3.70;3.40;;;;;;;18.80;50.20;96401.47;5010276;28;20230;-27
2024/03/02 02:35:54;;;;;;;3.93;3.53;;;;;;;18.81;49.79;96398.94;5012392;28;20222;-25
2024/03/02 02:38:20;;;;;;;3.60;3.30;;;;;;;18.83;50.12;96397.28;5011635;28;20304;-25
2024/03/02 02:40:47;;;;;;;3.20;3.00;;;;;;;18.83;49.61;96393.88;5011264;28;20615;-25
2024/03/02 02:43:14;;;;;;;3.53;3.23;;;;;;;18.77;49.83;96370.84;5012419;28;20641;-25
2024/03/02 02:45:40;;;;;;;3.43;3.13;;;;;;;18.85;50.05;96389.69;5012490;28;20236;-25
2024/03/02 02:48:07;;;;;;;3.40;3.10;;;;;;;18.86;50.10;96389.72;5011853;28;20696;-31
2024/03/02 02:50:34;;;;;;;3.60;3.30;;;;;;;18.86;49.68;96382.06;5011988;28;20214;-25
2024/03/02 02:53:00;;;;;;;3.73;3.33;;;;;;;18.88;49.94;96384.66;5012586;28;20546;-25
2024/03/02 02:55:27;;;;;;;4.10;3.80;;;;;;;18.88;50.00;96380.44;5011783;28;20218;-25
2024/03/02 02:57:53;;;;;;;3.70;3.40;;;;;;;18.90;49.99;96380.47;5012606;28;20209;-25
2024/03/02 03:00:22;;;;;;;4.17;3.77;;;;;;;18.89;50.36;96374.50;5012230;28;20225;-26
2024/03/02 03:02:49;;;;;;;3.47;3.17;;;;;;;18.90;49.94;96378.78;5011539;28;20305;-26
2024/03/02 03:05:17;;;;;;;3.80;3.50;;;;;;;18.83;49.96;96365.91;5010945;28;20203;-29
2024/03/02 03:07:44;;;;;;;3.87;3.47;;;;;;;18.90;49.98;96377.91;5011759;28;20295;-25
2024/03/02 03:10:11;;;;;;;3.60;3.30;;;;;;;18.88;49.77;96377.88;5010941;28;20265;-26
2024/03/02 03:12:38;;;;;;;3.97;3.67;;;;;;;18.91;49.76;96383.03;5010306;28;20198;-25
2024/03/02 03:15:07;;;;;;;4.10;3.80;;;;;;;18.92;49.93;96386.44;5011256;28;20672;-34
2024/03/02 03:17:34;;;;;;;3.10;2.90;;;;;;;18.92;49.97;96386.44;5010737;28;20217;-25
2024/03/02 03:20:02;;;;;;;4.00;3.60;;;;;;;18.89;50.02;96384.69;5009919;28;20755;-25
2024/03/02 03:22:29;;;;;;;3.70;3.40;;;;;;;18.92;49.80;96394.94;5017285;28;20202;-25
2024/03/02 03:24:55;;;;;;;3.50;3.20;;;;;;;18.93;49.94;96380.53;5011418;28;20202;-28
2024/03/02 03:27:22;;;;;;;3.33;3.10;;;;;;;18.93;49.79;96394.13;5009590;28;20194;-25
2024/03/02 03:29:49;;;;;;;3.70;3.33;;;;;;;18.93;50.04;96394.13;5011781;28;20240;-26
2024/03/02 03:32:16;;;;;;;3.90;3.60;;;;;;;18.94;49.77;96392.41;5012276;28;20253;-28
2024/03/02 03:34:43;;;;;;;3.53;3.23;;;;;;;18.90;49.20;96388.97;5005174;28;20607;-25
2024/03/02 03:37:09;;;;;;;3.63;3.33;;;;;;;18.95;49.88;96396.69;5009689;28;20241;-28
2024/03/02 03:39:36;;;;;;;3.40;3.10;;;;;;;18.92;49.77;96396.63;5009878;28;20581;-25
2024/03/02 03:42:03;;;;;;;3.60;3.30;;;;;;;18.95;49.70;96409.44;5010301;28;20304;-25
2024/03/02 03:44:30;;;;;;;3.30;3.00;;;;;;;18.96;49.88;96408.59;5011510;28;20558;-25
2024/03/02 03:46:56;;;;;;;3.03;2.83;;;;;;;18.96;49.82;96412.00;5011576;28;20195;-25
2024/03/02 03:49:23;;;;;;;3.20;2.93;;;;;;;18.96;49.68;96412.00;5011266;28;20222;-25
2024/03/02 03:51:49;;;;;;;3.20;3.00;;;;;;;18.96;50.33;96417.09;5015319;28;20199;-25
2024/03/02 03:54:16;;;;;;;3.40;3.10;;;;;;;18.97;50.26;96412.84;5014683;28;20204;-25
2024/03/02 03:56:43;;;;;;;3.23;2.93;;;;;;;18.98;49.84;96422.22;5014342;28;20229;-25
2024/03/02 03:59:09;;;;;;;3.60;3.30;;;;;;;18.98;50.00;96414.59;5015166;28;20648;-25
2024/03/02 04:01:36;;;;;;;3.83;3.53;;;;;;;18.97;49.80;96413.72;5015083;28;20225;-29
2024/03/02 04:04:03;;;;;;;3.50;3.20;;;;;;;18.99;49.60;96417.16;5030237;28;20194;-25
2024/03/02 04:06:30;;;;;;;3.50;3.20;;;;;;;18.98;49.75;96420.53;5014646;28;20575;-26
2024/03/02 04:08:56;;;;;;;3.00;2.80;;;;;;;19.00;49.93;96428.19;5015396;28;20233;-25
2024/03/02 04:11:23;;;;;;;3.53;3.23;;;;;;;18.99;49.93;96422.25;5013914;28;20289;-25
2024/03/02 04:13:50;;;;;;;3.63;3.33;;;;;;;18.99;49.67;96427.34;5014275;28;20225;-25
2024/03/02 04:16:16;;;;;;;3.70;3.40;;;;;;;18.99;49.93;96427.34;5014447;28;20309;-27
2024/03/02 04:18:43;;;;;;;3.63;3.33;;;;;;;19.00;49.62;96430.75;5014162;28;20206;-25
2024/03/02 04:21:09;;;;;;;3.63;3.33;;;;;;;19.00;49.65;96431.59;5014129;28;20226;-25
2024/03/02 04:23:36;;;;;;;3.73;3.43;;;;;;;18.99;49.62;96431.56;5013833;28;20269;-25
2024/03/02 04:26:03;;;;;;;3.50;3.20;;;;;;;19.01;49.52;96433.31;5014246;28;20217;-27
2024/03/02 04:28:29;;;;;;;3.60;3.30;;;;;;;19.01;49.67;96437.56;5014003;28;20637;-25
2024/03/02 04:30:56;;;;;;;3.30;3.00;;;;;;;19.01;49.64;96440.94;5009884;28;20277;-30
2024/03/02 04:33:23;;;;;;;2.87;2.67;;;;;;;19.00;49.66;96434.16;5014431;28;20267;-25
2024/03/02 04:35:49;;;;;;;3.27;3.07;;;;;;;19.02;49.93;96439.28;5014249;28;20612;-26
2024/03/02 04:38:16;;;;;;;3.27;2.97;;;;;;;19.00;49.76;96433.28;5013739;28;20241;-25
2024/03/02 04:40:42;;;;;;;3.43;3.13;;;;;;;19.01;49.64;96435.84;5014875;28;20265;-25
2024/03/02 04:43:10;;;;;;;3.10;2.90;;;;;;;19.01;49.83;96435.84;5012569;28;20352;-25
2024/03/02 04:45:38;;;;;;;3.00;2.80;;;;;;;19.01;49.75;96437.56;5013804;28;20297;-25
2024/03/02 04:48:05;;;;;;;3.00;2.80;;;;;;;19.03;49.70;96438.44;5028546;28;20194;-25
2024/03/02 04:50:31;;;;;;;3.13;2.90;;;;;;;19.03;49.70;96444.41;5013856;28;20651;-25
2024/03/02 04:52:58;;;;;;;3.50;3.20;;;;;;;19.01;49.92;96443.50;5013423;28;20627;-26
2024/03/02 04:57:56;;;;;;;3.10;2.80;;;;;;;19.01;49.71;96443.50;5013750;28;20697;-25
2024/03/02 05:00:23;;;;;;;3.30;3.00;;;;;;;19.03;49.54;96449.50;5013569;28;20228;-25
2024/03/02 05:02:50;;;;;;;3.53;3.23;;;;;;;18.97;49.63;96433.22;5013869;28;20237;-25
2024/03/02 05:05:17;;;;;;;3.10;2.90;;;;;;;19.05;49.97;96446.97;5014424;28;20202;-25
2024/03/02 05:07:44;;;;;;;3.10;2.90;;;;;;;19.02;49.72;96445.25;5012950;28;20191;-25
2024/03/02 05:10:14;;;;;;;3.10;2.90;;;;;;;19.04;50.14;96448.66;5013515;28;20222;-25
2024/03/02 05:15:12;;;;;;;3.43;3.17;;;;;;;19.04;49.64;96448.66;5012619;28;20213;-28
2024/03/02 05:17:44;;;;;;;3.13;2.93;;;;;;;19.04;49.73;96451.22;5013401;28;20253;-25
2024/03/02 05:20:11;;;;;;;4.80;2.90;;;;;;;19.04;49.62;96453.75;5013101;28;20629;-25
2024/03/02 05:22:38;;;;;;;3.27;3.07;;;;;;;19.05;49.63;96450.41;5012687;28;20707;-25
2024/03/02 05:25:05;;;;;;;2.83;2.63;;;;;;;19.05;49.60;96454.63;5013315;28;20268;-25
2024/03/02 05:27:32;;;;;;;3.63;3.33;;;;;;;19.05;49.72;96454.63;5012737;28;20203;-25
2024/03/02 05:29:59;;;;;;;3.17;2.90;;;;;;;19.04;49.55;96451.22;5013281;28;20321;-26
2024/03/02 05:32:26;;;;;;;2.90;2.70;;;;;;;19.05;49.68;96458.03;5013540;28;20229;-25
2024/03/02 05:34:53;;;;;;;3.60;3.30;;;;;;;19.04;49.04;96453.75;5012968;28;20198;-26
2024/03/02 05:37:19;;;;;;;3.17;2.97;;;;;;;19.05;49.58;96452.94;5012971;28;20878;-26
2024/03/02 05:39:46;;;;;;;4.40;4.00;;;;;;;19.05;49.56;96452.06;5013672;28;20241;-25
2024/03/02 05:42:13;;;;;;;4.30;3.90;;;;;;;19.04;49.22;96453.75;5013998;28;20199;-25
2024/03/02 05:44:39;;;;;;;4.70;4.30;;;;;;;19.05;49.22;96462.25;5012844;28;20198;-25
2024/03/02 05:47:08;;;;;;;4.57;4.17;;;;;;;19.04;49.28;96456.28;5013298;28;20237;-27
2024/03/02 05:49:35;;;;;;;4.70;4.30;;;;;;;19.04;49.42;96455.47;5012118;28;20222;-25
2024/03/02 05:52:03;;;;;;;4.47;4.07;;;;;;;19.04;49.25;96463.09;5012343;28;20265;-26
2024/03/02 05:54:29;;;;;;;4.13;3.73;;;;;;;19.04;49.38;96456.28;5012931;28;20221;-25
2024/03/02 05:56:56;;;;;;;4.70;4.30;;;;;;;19.03;49.60;96463.91;5012440;28;20218;-25
2024/03/02 05:59:23;;;;;;;4.10;3.70;;;;;;;19.05;49.60;96468.22;5013211;28;20222;-25
2024/03/02 06:01:51;;;;;;;4.10;3.80;;;;;;;19.05;49.41;96465.69;5010049;28;20230;-25
2024/03/02 06:04:18;;;;;;;4.27;3.87;;;;;;;19.06;49.32;96461.41;5012361;28;20209;-29
2024/03/02 06:06:45;;;;;;;4.20;3.90;;;;;;;19.06;49.43;96461.41;5015496;28;20265;-27
2024/03/02 06:09:14;;;;;;;3.70;3.40;;;;;;;19.06;49.35;96469.06;5011433;28;20309;-25
2024/03/02 06:11:41;;;;;;;3.63;3.33;;;;;;;19.07;49.77;96460.63;5012915;28;20252;-26
2024/03/02 06:14:08;;;;;;;3.97;3.67;;;;;;;19.07;49.49;96461.47;5012303;28;20210;-25
2024/03/02 06:16:35;;;;;;;3.87;3.57;;;;;;;19.06;49.54;96452.09;5012281;28;20241;-28
2024/03/02 06:19:02;;;;;;;4.10;3.70;;;;;;;19.07;49.40;96458.06;5012824;28;20210;-25
2024/03/02 06:21:29;;;;;;;3.97;3.67;;;;;;;19.08;49.55;96464.88;5012374;28;20699;-25
2024/03/02 06:23:56;;;;;;;3.60;3.30;;;;;;;19.06;49.53;96457.19;5012369;28;20225;-26
2024/03/02 06:26:23;;;;;;;3.70;3.40;;;;;;;19.01;49.67;96452.84;5012579;28;20535;-25
2024/03/02 06:28:51;;;;;;;3.87;3.57;;;;;;;19.07;49.67;96458.91;5009577;28;20271;-28
2024/03/02 06:31:18;;;;;;;3.37;3.07;;;;;;;19.10;49.71;96460.69;5011885;28;20257;-25
2024/03/02 06:33:45;;;;;;;3.63;3.33;;;;;;;19.10;49.98;96458.13;5010931;28;20261;-25
2024/03/02 06:36:11;;;;;;;3.50;3.20;;;;;;;19.11;49.55;96457.31;5012158;28;20577;-25
2024/03/02 06:38:40;;;;;;;4.20;3.80;;;;;;;19.12;49.68;96453.91;5011852;28;20242;-25
2024/03/02 06:41:09;;;;;;;4.00;3.30;;;;;;;19.14;49.55;96457.38;5012481;28;20226;-25
2024/03/02 06:43:35;;;;;;;3.40;3.10;;;;;;;19.14;49.48;96458.25;5011891;28;20252;-25
2024/03/02 06:46:02;;;;;;;4.00;3.10;;;;;;;19.16;49.46;96458.28;5008468;28;20199;-27
2024/03/02 06:48:29;;;;;;;3.43;3.13;;;;;;;19.14;49.18;96450.59;5011988;28;20541;-26
2024/03/02 06:50:58;;;;;;;3.57;2.90;;;;;;;19.18;49.54;96459.16;5012333;28;20222;-25
2024/03/02 06:53:25;;;;;;;4.23;3.30;;;;;;;19.18;49.50;96460.00;5012411;28;20210;-25
2024/03/02 06:55:51;;;;;;;3.60;3.30;;;;;;;19.19;49.55;96453.25;5011923;28;20244;-25
2024/03/02 06:58:18;;;;;;;3.30;3.00;;;;;;;19.21;49.72;96465.19;5011249;28;20244;-26
2024/03/02 07:00:45;;;;;;;3.10;2.90;;;;;;;19.21;49.47;96464.31;5011261;28;20218;-26
2024/03/02 07:03:12;;;;;;;3.27;3.03;;;;;;;19.20;49.58;96460.91;5011914;28;20209;-25
2024/03/02 07:05:39;;;;;;;3.60;3.30;;;;;;;19.19;49.65;96456.63;5014016;28;20243;-25
2024/03/02 07:08:06;;;;;;;3.47;3.00;;;;;;;19.20;49.64;96465.13;5015688;28;20201;-25
2024/03/02 07:10:32;;;;;;;4.50;3.03;;;;;;;19.20;49.76;96454.94;5010449;28;20745;-25
2024/03/02 07:12:59;;;;;;;5.30;3.37;;;;;;;19.20;49.80;96460.03;5011811;28;20217;-25
2024/03/02 07:18:11;;;;;;;3.10;2.83;;;;;;;19.17;49.73;96458.31;5007988;28;20222;-25
2024/03/02 07:20:38;;;;;;;3.60;3.27;;;;;;;19.15;49.91;96456.53;5010787;28;20253;-25
2024/03/02 07:23:05;;;;;;;3.20;2.90;;;;;;;19.14;49.95;96467.56;5011612;28;20285;-25
2024/03/02 07:25:32;;;;;;;3.80;3.47;;;;;;;19.12;50.08;96461.56;5013010;28;20634;-25
2024/03/02 07:28:02;;;;;;;3.20;3.00;;;;;;;19.11;49.96;96464.94;5015311;28;20725;-26
2024/03/02 07:30:29;;;;;;;4.40;3.77;;;;;;;19.09;50.08;96464.03;5015324;28;20229;-26
2024/03/02 07:32:59;;;;;;;5.70;5.20;;;;;;;19.07;49.82;96471.63;5010765;28;20289;-28
2024/03/02 07:35:31;;;;;;;7.17;6.20;;;;;;;19.07;49.31;96476.72;5015412;28;20253;-28
2024/03/02 07:37:58;;;;;;;6.40;5.80;;;;;;;19.05;49.39;96473.31;5015668;28;20230;-25
2024/03/02 07:40:24;;;;;;;6.77;6.17;;;;;;;18.99;49.57;96470.63;5033013;28;20219;-26
2024/03/02 07:42:51;;;;;;;8.80;7.93;;;;;;;19.02;49.46;96474.91;5011585;28;20203;-25
2024/03/02 07:45:18;;;;;;;9.23;8.00;;;;;;;18.99;49.36;96480.81;5025780;28;20744;-25
2024/03/02 07:47:44;;;;;;;8.47;7.67;;;;;;;18.98;49.34;96478.25;5006125;28;20281;-25
2024/03/02 07:50:11;;;;;;;8.57;7.77;;;;;;;18.97;49.17;96486.69;4997610;28;20269;-25
2024/03/02 07:52:38;;;;;;;8.70;7.80;;;;;;;18.96;49.12;96495.16;5015434;28;20202;-25
2024/03/02 07:55:04;;;;;;;10.53;9.53;;;;;;;18.94;49.36;96484.94;5015120;28;20248;-25
2024/03/02 07:57:31;;;;;;;11.97;10.87;;;;;;;18.94;49.08;96491.69;5015253;28;20313;-29
2024/03/02 07:59:59;;;;;;;12.50;11.30;;;;;;;18.93;48.88;96495.94;5014651;28;20789;-27
2024/03/02 08:02:26;;;;;;;12.97;11.60;;;;;;;18.91;48.80;96495.03;5030408;28;20198;-26
2024/03/02 08:04:52;;;;;;;11.80;10.60;;;;;;;18.90;49.39;96489.91;5012767;28;20268;-25
2024/03/02 08:07:19;;;;;;;11.10;10.03;;;;;;;18.90;48.49;96497.56;5015836;28;20206;-25
2024/03/02 08:09:45;;;;;;;10.17;9.17;;;;;;;18.88;49.38;96501.75;5017724;28;20222;-25
2024/03/02 08:12:12;;;;;;;10.20;9.07;;;;;;;18.88;49.51;96496.66;5014624;28;20575;-25
2024/03/02 08:14:38;;;;;;;9.60;8.40;;;;;;;18.88;49.93;96501.75;5015914;28;20622;-25
2024/03/02 08:17:09;;;;;;;8.80;7.97;;;;;;;18.85;50.04;96501.66;5014196;28;20763;-25
2024/03/02 08:19:36;;;;;;;10.23;7.73;;;;;;;18.83;49.88;96508.44;5012394;28;20226;-25
2024/03/02 08:22:03;;;;;;;8.97;7.90;;;;;;;18.82;50.17;96509.22;5013915;28;20222;-25
2024/03/02 08:24:30;;;;;;;8.33;7.53;;;;;;;18.82;49.98;96512.66;5013442;28;20665;-25
2024/03/02 08:26:57;;;;;;;9.73;8.13;;;;;;;18.80;50.26;96506.66;5014794;28;20199;-25
2024/03/02 08:29:23;;;;;;;8.73;7.83;;;;;;;18.83;50.30;96516.06;5012139;28;20222;-25
2024/03/02 08:31:50;;;;;;;8.57;7.67;;;;;;;18.82;50.48;96519.41;5014279;28;20209;-25
2024/03/02 08:34:16;;;;;;;10.00;7.83;;;;;;;18.82;50.06;96520.28;5014926;28;20260;-25
2024/03/02 08:36:43;;;;;;;7.90;7.10;;;;;;;18.81;50.27;96515.16;5013290;28;20225;-25
2024/03/02 08:39:16;;;;;;;8.13;7.23;;;;;;;18.81;49.79;96517.72;5029466;28;20672;-25
2024/03/02 08:41:44;;;;;;;7.43;6.73;;;;;;;18.83;50.56;96513.53;5013577;28;20221;-25
2024/03/02 08:44:10;;;;;;;7.70;6.90;;;;;;;18.82;50.26;96516.88;5014746;28;20205;-25
2024/03/02 08:46:37;;;;;;;10.77;9.67;;;;;;;18.80;50.50;96521.91;5013221;28;20205;-25
2024/03/02 08:49:04;;;;;;;10.63;9.57;;;;;;;18.78;50.45;96517.63;5013566;28;20191;-25
2024/03/02 08:51:30;;;;;;;10.63;9.37;;;;;;;18.76;51.14;96519.28;5014464;28;20202;-25
2024/03/02 08:53:57;;;;;;;10.67;9.57;;;;;;;18.76;50.59;96521.81;5014281;28;20726;-25
2024/03/02 08:56:24;;;;;;;11.53;9.60;;;;;;;18.74;50.75;96519.22;5014384;28;20202;-25
2024/03/02 08:58:51;;;;;;;10.90;9.80;;;;;;;18.75;51.13;96520.97;5014111;28;20276;-25
2024/03/02 09:01:19;;;;;;;9.77;8.87;;;;;;;18.74;51.06;96519.22;5014503;28;20202;-25
2024/03/02 09:03:46;;;;;;;10.43;9.10;;;;;;;18.74;51.11;96519.22;5014396;28;20209;-26
2024/03/02 09:06:13;;;;;;;9.80;8.80;;;;;;;18.73;51.07;96517.53;5014582;28;20228;-29
2024/03/02 09:08:40;;;;;;;10.33;8.33;;;;;;;18.66;51.07;96509.69;5014233;28;20194;-26
2024/03/02 09:11:07;;;;;;;9.23;7.83;;;;;;;18.75;50.93;96520.09;5006142;28;20233;-25
2024/03/02 09:13:33;;;;;;;9.40;8.40;;;;;;;18.72;51.08;96523.44;5014411;28;20649;-25
2024/03/02 09:16:00;;;;;;;8.97;7.73;;;;;;;18.71;51.01;96516.63;5014201;28;20195;-25
2024/03/02 09:18:27;;;;;;;8.90;7.90;;;;;;;18.72;51.04;96522.56;5014013;28;20668;-25
2024/03/02 09:20:53;;;;;;;8.80;7.90;;;;;;;18.74;51.16;96515.84;5014026;28;20226;-25
2024/03/02 09:23:20;;;;;;;7.47;6.77;;;;;;;18.72;51.21;96518.34;5014193;28;20285;-25
2024/03/02 09:25:47;;;;;;;7.83;7.03;;;;;;;18.67;51.11;96519.91;5013669;28;20260;-25
2024/03/02 09:28:15;;;;;;;7.97;7.00;;;;;;;18.71;50.98;96520.88;5014004;28;20241;-25
2024/03/02 09:30:42;;;;;;;7.67;6.97;;;;;;;18.70;51.21;96525.09;5013440;28;20226;-25
2024/03/02 09:33:09;;;;;;;8.20;7.40;;;;;;;18.71;51.42;96521.69;5006172;28;20214;-29
2024/03/02 09:35:38;;;;;;;8.30;7.50;;;;;;;18.70;51.24;96512.34;5013791;28;20289;-26
2024/03/02 09:38:05;;;;;;;7.07;6.43;;;;;;;18.71;51.38;96525.94;5013871;28;20409;-25
2024/03/02 09:40:32;;;;;;;8.37;7.10;;;;;;;18.70;51.63;96524.22;5013495;28;20708;-25
2024/03/02 09:42:58;;;;;;;7.33;6.63;;;;;;;18.69;51.44;96509.78;5012503;28;20202;-25
2024/03/02 09:45:25;;;;;;;9.20;7.03;;;;;;;18.69;51.43;96513.19;5013240;28;20296;-25
2024/03/02 09:47:52;;;;;;;7.60;6.90;;;;;;;18.68;51.92;96508.91;5013319;28;20245;-25
2024/03/02 09:50:18;;;;;;;6.70;6.10;;;;;;;18.67;51.27;96502.09;5013370;28;20309;-25
2024/03/02 09:52:48;;;;;;;7.67;6.63;;;;;;;18.69;51.41;96513.19;5013762;28;20221;-25
2024/03/02 09:55:15;;;;;;;7.00;6.40;;;;;;;18.69;51.35;96515.75;5011592;28;20226;-26
2024/03/02 09:57:42;;;;;;;7.20;6.50;;;;;;;18.70;51.80;96519.13;5013175;28;20245;-27
2024/03/02 10:00:14;;;;;;;7.07;5.70;;;;;;;18.70;51.17;96512.34;5011797;28;20653;-25
2024/03/02 10:02:41;;;;;;;6.67;6.00;;;;;;;18.69;51.53;96509.78;5013259;28;20206;-25
2024/03/02 10:05:14;;;;;;;6.07;5.47;;;;;;;18.69;51.16;96507.22;5013133;28;20240;-25
2024/03/02 10:07:40;;;;;;;6.93;6.23;;;;;;;18.69;51.38;96508.09;5013614;28;20198;-25
2024/03/02 10:10:14;;;;;;;6.70;6.10;;;;;;;18.69;51.50;96500.47;5013577;28;20567;-25
2024/03/02 10:12:41;;;;;;;6.67;5.93;;;;;;;18.69;51.62;96503.00;5013258;28;20209;-25
2024/03/02 10:15:09;;;;;;;6.90;6.20;;;;;;;18.69;51.63;96500.47;5013506;28;20206;-25
2024/03/02 10:17:36;;;;;;;6.50;5.80;;;;;;;18.67;51.84;96499.56;5008234;28;20226;-26
2024/03/02 10:20:23;;;;;;;6.60;5.80;;;;;;;18.68;51.81;96496.19;5012825;28;20638;-25
2024/03/02 10:22:50;;;;;;;6.17;5.53;;;;;;;18.67;51.87;96491.94;5009665;28;20206;-25
2024/03/02 10:25:32;;;;;;;6.13;5.53;;;;;;;18.68;51.78;96488.53;5011954;28;20622;-25
2024/03/02 10:28:16;;;;;;;6.20;5.60;;;;;;;18.68;51.62;96493.63;5013133;28;20283;-25
2024/03/02 10:30:43;;;;;;;6.07;5.57;;;;;;;18.67;51.72;96496.16;5012714;28;20221;-25
2024/03/02 10:33:10;;;;;;;6.63;5.47;;;;;;;18.69;51.60;96492.84;5012833;28;20613;-25
2024/03/02 10:35:37;;;;;;;6.10;5.50;;;;;;;18.69;51.47;96490.28;5012870;28;20273;-25
2024/03/02 10:38:05;;;;;;;5.87;5.27;;;;;;;18.71;51.75;96485.22;4993727;28;20265;-25
2024/03/02 10:40:32;;;;;;;6.97;5.20;;;;;;;18.70;51.49;96489.44;5012453;28;20257;-26
2024/03/02 10:42:59;;;;;;;5.93;5.33;;;;;;;18.66;51.31;96480.03;5012628;28;20202;-25
2024/03/02 10:45:27;;;;;;;7.27;5.70;;;;;;;18.68;51.37;96470.72;5011484;28;20229;-25
2024/03/02 10:47:54;;;;;;;5.93;5.10;;;;;;;18.69;51.83;96479.25;5012044;28;20256;-25
2024/03/02 10:50:20;;;;;;;5.80;5.20;;;;;;;18.69;51.55;96476.69;5027639;28;20722;-26
2024/03/02 10:52:47;;;;;;;6.77;5.30;;;;;;;18.70;52.00;96478.41;5012800;28;20622;-25
2024/03/02 10:55:13;;;;;;;5.30;4.80;;;;;;;18.68;51.54;96477.53;5011334;28;20198;-25
2024/03/02 10:57:54;;;;;;;5.37;4.87;;;;;;;18.68;51.96;96470.72;5027358;28;20642;-28
2024/03/02 11:00:26;;;;;;;5.47;4.97;;;;;;;18.69;51.67;96461.44;5008914;28;20594;-25
2024/03/02 11:02:56;;;;;;;5.60;5.10;;;;;;;18.69;51.72;96458.88;5011003;28;20284;-25
2024/03/02 11:05:31;;;;;;;5.57;5.07;;;;;;;18.69;51.47;96451.25;5012493;28;20199;-27
2024/03/02 11:08:04;;;;;;;5.50;4.90;;;;;;;18.68;51.55;96447.84;5012373;28;20200;-25
2024/03/02 11:10:54;;;;;;;5.37;4.87;;;;;;;18.69;51.38;96452.13;5012189;28;20218;-25
2024/03/02 11:13:24;;;;;;;5.80;4.93;;;;;;;18.69;51.69;96446.16;5011214;28;20340;-25
2024/03/02 11:15:52;;;;;;;5.97;4.57;;;;;;;18.62;51.47;96429.03;5009955;28;20226;-25
2024/03/02 11:18:19;;;;;;;5.57;4.97;;;;;;;18.68;51.86;96440.19;4994386;28;20226;-25
2024/03/02 11:20:46;;;;;;;5.03;4.53;;;;;;;18.64;51.53;96432.47;5009940;28;20700;-25
2024/03/02 11:23:13;;;;;;;5.20;4.70;;;;;;;18.68;51.54;96431.72;4993390;28;20202;-25
2024/03/02 11:25:40;;;;;;;5.83;5.00;;;;;;;18.68;52.07;96427.47;4993921;28;20198;-25
2024/03/02 11:28:09;;;;;;;5.30;4.80;;;;;;;18.68;51.54;96429.19;5011100;28;20203;-25
2024/03/02 11:30:37;;;;;;;6.47;4.70;;;;;;;18.70;51.70;96427.50;5011516;28;20222;-25
2024/03/02 11:33:08;;;;;;;4.83;4.43;;;;;;;18.71;51.83;96406.34;5011476;28;20197;-25
2024/03/02 11:35:38;;;;;;;6.00;5.23;;;;;;;18.72;51.85;96413.16;5011586;28;20272;-25
2024/03/02 11:38:04;;;;;;;5.17;4.67;;;;;;;18.72;51.94;96408.94;5010138;28;20242;-25
2024/03/02 11:40:31;;;;;;;6.67;5.03;;;;;;;18.71;51.74;96404.63;5010179;28;20218;-25